Time;durP1;ratioP1;P1;durP2;ratioP2;P2;SDS_P1;SDS_P2;PMS_P1;PMS_P2;Temp;Humidity;BMP_temperature;BMP_pressure;BME280_temperature;BME280_humidity;BME280_pressure;Samples;Min_cycle;Max_cycle;Signal;HPM_P1;HPM_P2
2022/08/29 00:01:43;;;;;;;9.75;2.38;;;16.70;99.90;;;;;;6067880;23;20023;-91
2022/08/29 00:04:09;;;;;;;10.23;2.40;;;16.70;99.90;;;;;;6068203;23;20348;-91
2022/08/29 00:06:35;;;;;;;7.18;2.55;;;16.60;99.90;;;;;;6067747;23;20014;-91
2022/08/29 00:09:01;;;;;;;11.70;3.20;;;16.70;99.90;;;;;;6068388;23;20138;-91
2022/08/29 00:11:26;;;;;;;12.57;2.83;;;16.70;99.90;;;;;;6068047;23;20026;-91
2022/08/29 00:13:52;;;;;;;9.25;2.88;;;16.70;99.90;;;;;;6066654;23;20019;-92
2022/08/29 00:16:18;;;;;;;8.45;2.60;;;16.60;99.90;;;;;;6067716;23;20019;-91
2022/08/29 00:18:44;;;;;;;12.48;2.33;;;16.60;99.90;;;;;;6067404;23;20344;-91
2022/08/29 00:21:10;;;;;;;8.90;2.60;;;16.60;99.90;;;;;;6067793;23;20029;-91
2022/08/29 00:23:36;;;;;;;10.30;2.40;;;16.60;99.90;;;;;;6068291;23;20546;-90
2022/08/29 00:26:02;;;;;;;8.27;2.53;;;16.60;99.90;;;;;;6067598;23;20101;-91
2022/08/29 00:28:27;;;;;;;7.70;2.38;;;16.70;99.90;;;;;;6068098;23;20018;-91
2022/08/29 00:30:53;;;;;;;8.20;2.40;;;16.70;99.90;;;;;;6068633;23;20029;-91
2022/08/29 00:33:19;;;;;;;10.30;2.47;;;16.60;99.90;;;;;;6066704;23;20021;-91
2022/08/29 00:35:45;;;;;;;10.38;2.33;;;16.60;99.90;;;;;;6068509;23;20021;-91
2022/08/29 00:38:14;;;;;;;9.60;2.38;;;16.60;99.90;;;;;;6067537;23;20014;-91
2022/08/29 00:40:43;;;;;;;7.80;2.05;;;16.60;99.90;;;;;;6067181;23;20023;-91
2022/08/29 00:43:09;;;;;;;7.88;1.83;;;16.60;99.90;;;;;;6067204;23;20448;-90
2022/08/29 00:45:37;;;;;;;9.23;2.05;;;16.60;99.90;;;;;;6069550;23;20041;-92
2022/08/29 00:48:12;;;;;;;10.35;2.40;;;16.60;99.90;;;;;;6069405;23;20093;-92
2022/08/29 00:50:46;;;;;;;9.00;2.10;;;16.60;99.90;;;;;;6067945;23;20058;-92
2022/08/29 00:53:16;;;;;;;12.02;2.08;;;16.60;99.90;;;;;;6067667;23;20588;-91
2022/08/29 00:55:44;;;;;;;5.65;1.42;;;16.50;99.90;;;;;;6067127;23;20019;-92
2022/08/29 00:58:17;;;;;;;4.22;1.40;;;16.60;99.90;;;;;;6067272;23;20022;-91
2022/08/29 01:00:44;;;;;;;13.63;2.20;;;16.60;99.90;;;;;;6067507;23;20050;-92
2022/08/29 01:03:10;;;;;;;7.80;1.50;;;16.50;99.90;;;;;;6066822;23;20015;-91
2022/08/29 01:05:36;;;;;;;9.68;1.65;;;16.60;99.90;;;;;;6067371;23;20062;-91
2022/08/29 01:08:03;;;;;;;11.55;1.98;;;16.60;99.90;;;;;;6067005;23;20098;-92
2022/08/29 01:13:13;;;;;;;6.63;1.70;;;16.60;99.90;;;;;;6090881;23;20030;-93
2022/08/29 01:15:42;;;;;;;4.53;1.63;;;16.60;99.90;;;;;;6068920;23;20023;-91
2022/08/29 01:18:10;;;;;;;8.07;1.70;;;16.50;99.90;;;;;;6069327;23;20018;-91
2022/08/29 01:21:02;;;;;;;10.35;2.13;;;16.60;99.90;;;;;;6067463;23;20022;-90
2022/08/29 01:23:40;;;;;;;11.40;1.90;;;16.60;99.90;;;;;;6066494;23;20317;-91
2022/08/29 01:26:08;;;;;;;11.13;2.03;;;16.60;99.90;;;;;;6067650;23;20029;-92
2022/08/29 01:28:39;;;;;;;9.32;1.90;;;16.60;99.90;;;;;;6066737;23;20097;-92
2022/08/29 01:31:09;;;;;;;8.90;2.20;;;16.50;99.90;;;;;;6066299;23;20025;-91
2022/08/29 01:33:45;;;;;;;8.88;1.70;;;16.50;99.90;;;;;;6066872;23;20041;-92
2022/08/29 01:36:15;;;;;;;7.95;1.52;;;16.60;99.90;;;;;;6066766;23;20022;-92
2022/08/29 01:38:41;;;;;;;10.48;1.98;;;16.60;99.90;;;;;;6067034;23;20018;-92
2022/08/29 01:41:09;;;;;;;8.70;1.90;;;16.60;99.90;;;;;;6067888;23;20049;-91
2022/08/29 01:43:43;;;;;;;8.27;1.75;;;16.60;99.90;;;;;;6066286;23;20089;-91
2022/08/29 01:46:11;;;;;;;9.68;1.88;;;16.50;99.90;;;;;;6067209;23;20508;-93
2022/08/29 01:48:39;;;;;;;5.68;1.83;;;16.60;99.90;;;;;;6067765;23;20019;-91
2022/08/29 01:51:06;;;;;;;7.32;1.88;;;16.60;99.90;;;;;;6066889;23;20033;-91
2022/08/29 01:53:31;;;;;;;10.05;1.90;;;16.60;99.90;;;;;;6067742;23;20010;-92
2022/08/29 01:55:57;;;;;;;7.72;1.55;;;16.60;99.90;;;;;;6068114;23;20070;-92
2022/08/29 01:58:23;;;;;;;9.02;1.38;;;16.60;99.90;;;;;;6065652;23;20137;-91
2022/08/29 02:00:49;;;;;;;10.27;1.83;;;16.60;99.90;;;;;;6067482;23;20026;-92
2022/08/29 02:03:16;;;;;;;9.20;1.67;;;16.80;99.90;;;;;;6067239;23;20098;-91
2022/08/29 02:05:43;;;;;;;11.23;2.40;;;16.50;99.90;;;;;;6067371;23;20029;-92
2022/08/29 02:08:08;;;;;;;10.27;1.92;;;16.50;99.90;;;;;;6067520;23;20014;-92
2022/08/29 02:10:34;;;;;;;11.20;1.70;;;16.60;99.90;;;;;;6067374;23;20014;-92
2022/08/29 02:13:00;;;;;;;7.50;1.90;;;16.90;99.90;;;;;;6066939;23;20076;-91
2022/08/29 02:15:25;;;;;;;9.68;1.98;;;16.60;99.90;;;;;;6066700;23;20041;-91
2022/08/29 02:17:51;;;;;;;9.90;1.63;;;16.60;99.90;;;;;;6067825;23;20033;-91
2022/08/29 02:20:17;;;;;;;8.23;2.20;;;16.60;99.90;;;;;;6066901;23;20053;-91
2022/08/29 02:22:43;;;;;;;7.97;2.00;;;16.60;99.90;;;;;;6067103;23;20018;-92
2022/08/29 02:27:54;;;;;;;12.60;1.77;;;16.60;99.90;;;;;;6093647;23;20030;-92
2022/08/29 02:30:20;;;;;;;12.32;2.55;;;16.60;99.90;;;;;;6068112;23;20029;-93
2022/08/29 02:32:47;;;;;;;12.50;1.83;;;16.60;99.90;;;;;;6068834;23;20022;-91
2022/08/29 02:35:13;;;;;;;13.10;2.35;;;16.60;99.90;;;;;;6069394;23;20015;-92
2022/08/29 02:37:39;;;;;;;9.65;2.10;;;16.60;99.90;;;;;;6069036;23;20077;-92
2022/08/29 02:40:06;;;;;;;10.13;2.30;;;16.60;99.90;;;;;;6070318;23;20025;-92
2022/08/29 02:42:32;;;;;;;10.70;2.28;;;16.60;99.90;;;;;;6070803;23;20018;-92
2022/08/29 02:44:58;;;;;;;17.92;2.80;;;16.50;99.90;;;;;;6070206;23;20037;-91
2022/08/29 02:47:24;;;;;;;11.57;2.20;;;16.50;99.90;;;;;;6067586;23;20029;-91
2022/08/29 02:49:50;;;;;;;11.93;3.05;;;16.50;99.90;;;;;;6069825;23;20065;-92
2022/08/29 02:52:16;;;;;;;11.68;2.70;;;16.50;99.90;;;;;;6068918;23;20073;-92
2022/08/29 02:54:42;;;;;;;16.55;2.10;;;16.50;99.90;;;;;;6067848;23;20018;-92
2022/08/29 02:57:08;;;;;;;11.70;2.00;;;16.50;99.90;;;;;;6070137;23;20025;-92
2022/08/29 02:59:34;;;;;;;14.25;1.98;;;16.50;99.90;;;;;;6068440;23;20495;-92
2022/08/29 03:01:59;;;;;;;13.82;2.20;;;16.50;99.90;;;;;;6068207;23;20018;-92
2022/08/29 03:04:25;;;;;;;11.02;2.17;;;16.50;99.90;;;;;;6068609;23;20018;-91
2022/08/29 03:06:51;;;;;;;9.40;2.03;;;16.50;99.90;;;;;;6068895;23;20014;-91
2022/08/29 03:09:16;;;;;;;15.48;2.33;;;16.50;99.90;;;;;;6067908;23;20089;-91
2022/08/29 03:11:42;;;;;;;10.05;2.10;;;16.50;99.90;;;;;;6068171;23;20077;-91
2022/08/29 03:14:08;;;;;;;13.07;2.30;;;16.50;99.90;;;;;;6068221;23;20019;-92
2022/08/29 03:16:34;;;;;;;7.88;2.50;;;16.50;99.90;;;;;;6067535;23;20030;-91
2022/08/29 03:18:59;;;;;;;11.10;2.05;;;16.50;99.90;;;;;;6069882;23;20073;-92
2022/08/29 03:21:26;;;;;;;13.35;2.33;;;16.50;99.90;;;;;;6068453;23;20018;-92
2022/08/29 03:23:55;;;;;;;10.07;2.00;;;16.50;99.90;;;;;;6067924;23;20093;-92
2022/08/29 03:26:21;;;;;;;18.33;2.63;;;16.50;99.90;;;;;;6068171;23;20329;-92
2022/08/29 03:28:47;;;;;;;19.45;2.47;;;16.60;99.90;;;;;;6068050;23;20432;-92
2022/08/29 03:31:13;;;;;;;12.70;2.22;;;16.70;99.90;;;;;;6068394;23;20060;-92
2022/08/29 03:33:39;;;;;;;13.20;2.50;;;16.60;99.90;;;;;;6068614;23;20081;-92
2022/08/29 03:36:06;;;;;;;13.85;2.35;;;16.50;99.90;;;;;;6067352;23;20391;-91
2022/08/29 03:38:34;;;;;;;14.68;2.20;;;16.60;99.90;;;;;;6068592;23;20466;-92
2022/08/29 03:41:00;;;;;;;9.07;1.95;;;16.50;99.90;;;;;;6092443;23;20026;-92
2022/08/29 03:43:25;;;;;;;15.27;2.63;;;16.50;99.90;;;;;;6067964;23;20046;-92
2022/08/29 03:45:52;;;;;;;14.90;2.47;;;16.50;99.90;;;;;;6070816;23;20432;-92
2022/08/29 03:48:18;;;;;;;9.32;2.17;;;16.60;99.90;;;;;;6069405;23;20097;-92
2022/08/29 03:50:43;;;;;;;7.97;1.90;;;16.50;99.90;;;;;;6068728;23;20050;-92
2022/08/29 03:53:09;;;;;;;13.05;1.92;;;16.50;99.90;;;;;;6071260;23;20061;-92
2022/08/29 03:55:35;;;;;;;11.82;2.20;;;16.60;99.90;;;;;;6069051;23;20014;-92
2022/08/29 03:58:00;;;;;;;10.82;2.00;;;16.40;99.90;;;;;;6068135;23;20029;-91
2022/08/29 04:00:26;;;;;;;12.55;2.33;;;16.70;99.90;;;;;;6067770;23;20018;-92
2022/08/29 04:02:54;;;;;;;10.95;1.95;;;16.40;99.90;;;;;;6069264;23;20022;-92
2022/08/29 04:05:20;;;;;;;10.48;2.50;;;16.40;99.90;;;;;;6067864;23;20026;-92
2022/08/29 04:07:52;;;;;;;12.35;2.35;;;16.40;99.90;;;;;;6069368;23;20019;-91
2022/08/29 04:10:22;;;;;;;12.13;2.45;;;16.40;99.90;;;;;;6068138;23;20014;-91
2022/08/29 04:12:48;;;;;;;19.30;2.00;;;16.60;99.90;;;;;;6067765;23;20102;-91
2022/08/29 04:15:14;;;;;;;11.65;1.83;;;16.30;99.90;;;;;;6067803;23;20050;-89
2022/08/29 04:17:39;;;;;;;10.65;2.53;;;16.30;99.90;;;;;;6066392;23;20029;-91
2022/08/29 04:20:07;;;;;;;11.27;1.90;;;16.30;99.90;;;;;;6067149;23;20065;-91
2022/08/29 04:22:34;;;;;;;10.15;2.13;;;16.30;99.90;;;;;;6067958;23;20025;-91
2022/08/29 04:25:00;;;;;;;8.75;1.85;;;16.30;99.90;;;;;;6068492;23;20021;-91
2022/08/29 04:27:26;;;;;;;8.70;2.47;;;16.30;99.90;;;;;;6069764;23;20539;-92
2022/08/29 04:29:52;;;;;;;8.55;1.85;;;16.30;99.90;;;;;;6071531;23;20014;-91
2022/08/29 04:32:18;;;;;;;6.90;1.90;;;16.30;99.90;;;;;;6067695;23;20022;-91
2022/08/29 04:34:44;;;;;;;11.10;2.28;;;16.30;99.90;;;;;;6068703;23;20026;-91
2022/08/29 04:37:10;;;;;;;10.38;1.70;;;16.30;99.90;;;;;;6069680;23;20455;-91
2022/08/29 04:39:36;;;;;;;14.80;2.10;;;16.60;99.90;;;;;;6071012;23;20022;-92
2022/08/29 04:42:02;;;;;;;10.70;2.10;;;16.50;99.90;;;;;;6067147;23;20026;-91
2022/08/29 04:44:28;;;;;;;16.65;1.88;;;16.30;99.90;;;;;;6069341;23;20014;-91
2022/08/29 04:46:54;;;;;;;11.57;2.08;;;16.30;99.90;;;;;;6066958;23;20019;-91
2022/08/29 04:49:20;;;;;;;8.80;1.73;;;16.40;99.90;;;;;;6069459;23;20018;-91
2022/08/29 04:51:46;;;;;;;12.63;2.60;;;16.30;99.90;;;;;;6070676;23;20530;-91
2022/08/29 04:54:11;;;;;;;7.43;2.10;;;16.40;99.90;;;;;;6066935;23;20070;-91
2022/08/29 04:56:37;;;;;;;11.80;2.08;;;16.40;99.90;;;;;;6067517;23;20162;-91
2022/08/29 04:59:03;;;;;;;7.97;2.30;;;16.40;99.90;;;;;;6067911;23;20494;-92
2022/08/29 05:01:30;;;;;;;14.48;2.38;;;16.40;99.90;;;;;;6067839;23;20543;-92
2022/08/29 05:03:56;;;;;;;12.88;2.25;;;16.40;99.90;;;;;;6070351;23;20062;-92
2022/08/29 05:06:23;;;;;;;16.63;2.35;;;16.50;99.90;;;;;;6067435;23;20018;-91
2022/08/29 05:08:51;;;;;;;11.05;2.38;;;16.50;99.90;;;;;;6067216;23;20384;-91
2022/08/29 05:11:19;;;;;;;19.88;2.58;;;16.50;99.90;;;;;;6068991;23;20018;-91
2022/08/29 05:13:46;;;;;;;13.32;2.10;;;16.50;99.90;;;;;;6067585;23;20174;-92
2022/08/29 05:16:13;;;;;;;11.65;1.98;;;16.50;99.90;;;;;;6066530;23;20025;-92
2022/08/29 05:18:40;;;;;;;12.13;2.33;;;16.50;99.90;;;;;;6067031;23;20029;-92
2022/08/29 05:21:06;;;;;;;11.45;2.20;;;16.60;99.90;;;;;;6069767;23;20074;-91
2022/08/29 05:23:32;;;;;;;10.85;2.70;;;16.60;99.90;;;;;;6067839;23;20006;-91
2022/08/29 05:26:00;;;;;;;12.50;2.05;;;16.70;99.90;;;;;;6069267;23;20101;-91
2022/08/29 05:28:27;;;;;;;9.45;2.45;;;16.70;99.90;;;;;;6066975;23;20015;-91
2022/08/29 05:30:53;;;;;;;11.15;2.10;;;16.70;99.90;;;;;;6065972;23;20022;-88
2022/08/29 05:33:19;;;;;;;12.77;2.50;;;16.70;99.90;;;;;;6066625;23;20073;-88
2022/08/29 05:35:44;;;;;;;10.73;2.00;;;16.70;99.90;;;;;;6066295;23;20018;-91
2022/08/29 05:38:10;;;;;;;13.25;2.08;;;16.80;99.90;;;;;;6067942;23;20029;-92
2022/08/29 05:40:37;;;;;;;12.93;2.33;;;16.80;99.90;;;;;;6068432;23;20024;-91
2022/08/29 05:43:03;;;;;;;12.52;1.98;;;17.10;99.90;;;;;;6068818;23;20478;-92
2022/08/29 05:45:29;;;;;;;13.57;2.50;;;16.90;99.90;;;;;;6067122;23;20026;-91
2022/08/29 05:47:55;;;;;;;5.95;1.70;;;16.90;99.90;;;;;;6067095;23;20022;-92
2022/08/29 05:50:22;;;;;;;13.65;2.92;;;16.90;99.90;;;;;;6066385;23;20015;-92
2022/08/29 05:52:47;;;;;;;8.90;1.90;;;16.90;99.90;;;;;;6067755;23;20022;-91
2022/08/29 05:55:13;;;;;;;13.85;2.28;;;17.00;99.90;;;;;;6066673;23;20090;-91
2022/08/29 05:57:39;;;;;;;12.98;2.83;;;17.00;99.90;;;;;;6066377;23;20279;-92
2022/08/29 06:00:07;;;;;;;9.85;2.03;;;17.00;99.90;;;;;;6066911;23;20054;-92
2022/08/29 06:02:33;;;;;;;11.07;2.53;;;17.00;99.90;;;;;;6066928;23;20058;-91
2022/08/29 06:04:59;;;;;;;6.93;2.20;;;17.10;99.90;;;;;;6067954;23;20022;-91
2022/08/29 06:07:25;;;;;;;9.13;2.28;;;17.10;99.90;;;;;;6067953;23;20026;-92
2022/08/29 06:09:51;;;;;;;12.57;2.30;;;17.20;99.90;;;;;;6068400;23;20025;-92
2022/08/29 06:12:18;;;;;;;13.32;2.33;;;17.20;99.90;;;;;;6065014;23;20019;-92
2022/08/29 06:14:43;;;;;;;13.30;2.40;;;17.30;99.90;;;;;;6069553;23;20034;-92
2022/08/29 06:17:10;;;;;;;10.30;2.33;;;17.30;99.90;;;;;;6066454;23;20022;-91
2022/08/29 06:19:38;;;;;;;16.30;2.55;;;17.40;99.90;;;;;;6066207;23;20112;-92
2022/08/29 06:22:07;;;;;;;9.75;2.50;;;17.50;99.90;;;;;;6066715;23;20132;-92
2022/08/29 06:24:33;;;;;;;10.70;2.58;;;17.60;99.90;;;;;;6067376;23;20053;-92
2022/08/29 06:27:00;;;;;;;9.15;2.50;;;17.60;99.90;;;;;;6067717;23;20018;-91
2022/08/29 06:29:26;;;;;;;13.25;3.13;;;17.70;99.90;;;;;;6066932;23;20019;-91
2022/08/29 06:31:55;;;;;;;13.05;2.90;;;17.80;99.90;;;;;;6066408;23;20531;-92
2022/08/29 06:34:21;;;;;;;13.13;3.08;;;17.80;99.90;;;;;;6067002;23;20102;-91
2022/08/29 06:36:47;;;;;;;11.90;2.85;;;17.90;99.90;;;;;;6066872;23;20510;-91
2022/08/29 06:39:13;;;;;;;16.88;2.92;;;18.00;99.90;;;;;;6042264;23;20026;-91
2022/08/29 06:41:39;;;;;;;15.73;2.70;;;18.00;99.90;;;;;;6044875;23;20050;-92
2022/08/29 06:44:06;;;;;;;15.98;2.80;;;18.10;99.90;;;;;;6043284;23;20033;-92
2022/08/29 06:46:35;;;;;;;20.27;3.03;;;18.20;99.90;;;;;;6042425;23;20472;-92
2022/08/29 06:49:04;;;;;;;13.60;2.95;;;18.30;99.90;;;;;;6044267;23;20021;-91
2022/08/29 06:51:31;;;;;;;13.45;2.72;;;18.40;99.90;;;;;;6044394;23;20022;-91
2022/08/29 06:53:59;;;;;;;14.70;2.88;;;18.40;99.90;;;;;;6042887;23;20025;-91
2022/08/29 06:56:25;;;;;;;19.50;3.10;;;18.60;99.90;;;;;;6042355;23;20026;-92
2022/08/29 06:58:51;;;;;;;15.55;3.08;;;18.60;99.90;;;;;;6043588;23;20065;-91
2022/08/29 07:01:18;;;;;;;14.05;2.78;;;18.70;99.90;;;;;;6042766;23;20022;-91
2022/08/29 07:03:44;;;;;;;16.10;3.10;;;18.80;99.90;;;;;;6042781;23;20019;-92
2022/08/29 07:06:10;;;;;;;17.35;3.00;;;18.80;99.90;;;;;;6043207;23;20030;-93
2022/08/29 07:08:37;;;;;;;16.02;2.63;;;18.90;99.90;;;;;;6041763;23;20053;-93
2022/08/29 07:11:03;;;;;;;14.57;2.88;;;19.00;99.90;;;;;;6043763;23;20534;-94
2022/08/29 07:13:29;;;;;;;21.52;3.17;;;19.10;99.90;;;;;;6044111;23;20015;-93
2022/08/29 07:15:56;;;;;;;10.85;2.72;;;19.20;99.90;;;;;;6044041;23;20014;-92
2022/08/29 07:18:22;;;;;;;13.32;2.85;;;19.30;99.90;;;;;;6049260;23;20448;-95
2022/08/29 07:20:48;;;;;;;11.95;2.60;;;19.20;99.90;;;;;;6043453;23;20029;-93
2022/08/29 07:23:14;;;;;;;17.02;2.55;;;19.20;99.90;;;;;;6045534;23;20372;-92
2022/08/29 07:25:40;;;;;;;13.90;2.60;;;19.10;99.90;;;;;;6047561;23;20029;-92
2022/08/29 07:28:06;;;;;;;14.50;2.95;;;19.00;99.90;;;;;;6045193;23;20022;-92
2022/08/29 07:30:32;;;;;;;10.45;2.38;;;19.00;99.90;;;;;;6044068;23;20499;-92
2022/08/29 07:32:58;;;;;;;13.18;2.60;;;19.00;99.90;;;;;;6044675;23;20103;-91
2022/08/29 07:35:25;;;;;;;13.30;2.30;;;19.10;99.90;;;;;;6043766;23;20451;-91
2022/08/29 07:37:54;;;;;;;17.92;2.75;;;19.10;99.90;;;;;;6052544;23;20033;-92
2022/08/29 07:40:20;;;;;;;15.57;2.70;;;19.10;99.90;;;;;;6068071;23;20077;-92
2022/08/29 07:42:46;;;;;;;15.15;2.92;;;19.20;99.90;;;;;;6067099;23;20102;-92
2022/08/29 07:45:13;;;;;;;18.02;3.92;;;19.20;99.90;;;;;;6068814;23;20050;-92
2022/08/29 07:47:39;;;;;;;15.82;3.25;;;19.20;99.90;;;;;;6068525;23;20468;-92
2022/08/29 07:50:09;;;;;;;17.35;3.50;;;19.30;99.90;;;;;;6068713;23;20097;-91
2022/08/29 07:52:35;;;;;;;16.90;3.50;;;19.30;99.90;;;;;;6068147;23;20019;-93
2022/08/29 07:55:01;;;;;;;16.25;3.45;;;19.30;99.90;;;;;;6068694;23;20018;-92
2022/08/29 07:57:27;;;;;;;16.15;3.33;;;19.50;99.90;;;;;;6066899;23;20029;-92
2022/08/29 07:59:53;;;;;;;20.42;3.88;;;19.50;99.90;;;;;;6069383;23;20014;-93
2022/08/29 08:02:18;;;;;;;18.58;3.30;;;19.50;99.90;;;;;;6071995;23;20030;-92
2022/08/29 08:04:44;;;;;;;18.00;3.90;;;19.60;99.90;;;;;;6069886;23;20022;-94
2022/08/29 08:07:11;;;;;;;15.93;3.40;;;19.60;99.90;;;;;;6067993;23;20325;-92
2022/08/29 08:09:37;;;;;;;17.27;2.85;;;19.50;99.90;;;;;;6068458;23;20052;-91
2022/08/29 08:12:04;;;;;;;13.60;3.35;;;19.60;99.90;;;;;;6069183;23;20022;-93
2022/08/29 08:14:32;;;;;;;20.75;3.67;;;19.70;99.90;;;;;;6068378;23;20025;-93
2022/08/29 08:16:57;;;;;;;23.00;3.72;;;19.70;99.90;;;;;;6068302;23;20050;-92
2022/08/29 08:19:24;;;;;;;14.85;3.60;;;19.80;99.90;;;;;;6069026;23;20451;-92
2022/08/29 08:21:50;;;;;;;18.88;3.80;;;19.70;99.90;;;;;;6071335;23;20097;-92
2022/08/29 08:24:17;;;;;;;15.75;3.60;;;19.70;99.90;;;;;;6067030;23;20438;-91
2022/08/29 08:26:44;;;;;;;15.32;3.88;;;19.70;99.90;;;;;;6068387;23;20033;-92
2022/08/29 08:29:11;;;;;;;13.65;3.53;;;19.60;99.90;;;;;;6068351;23;20014;-91
2022/08/29 08:31:43;;;;;;;15.10;2.95;;;19.60;99.90;;;;;;6067714;23;20026;-92
2022/08/29 08:34:09;;;;;;;14.70;3.33;;;19.60;99.90;;;;;;6067299;23;20054;-92
2022/08/29 08:36:37;;;;;;;15.05;3.22;;;19.60;99.90;;;;;;6068195;23;20022;-92
2022/08/29 08:39:04;;;;;;;9.18;2.88;;;19.60;99.90;;;;;;6066926;23;20046;-94
2022/08/29 08:41:39;;;;;;;15.43;3.03;;;19.60;99.90;;;;;;6070274;23;20460;-91
2022/08/29 08:44:09;;;;;;;18.88;4.03;;;19.70;99.90;;;;;;6068603;23;20024;-92
2022/08/29 08:46:48;;;;;;;17.98;3.60;;;19.70;99.90;;;;;;6067386;23;20026;-92
2022/08/29 08:49:16;;;;;;;19.02;3.53;;;19.70;99.90;;;;;;6067998;23;20018;-93
2022/08/29 08:51:50;;;;;;;15.80;3.80;;;19.80;99.90;;;;;;6068638;23;20023;-93
2022/08/29 08:54:22;;;;;;;20.38;4.13;;;19.90;99.90;;;;;;6067639;23;20042;-93
2022/08/29 08:56:55;;;;;;;18.08;3.72;;;20.10;99.90;;;;;;6068361;23;20046;-93
2022/08/29 08:59:31;;;;;;;16.48;3.83;;;20.00;99.90;;;;;;6066418;23;20475;-94
2022/08/29 09:02:02;;;;;;;13.15;2.97;;;20.20;99.90;;;;;;6067067;23;20022;-94
2022/08/29 09:04:36;;;;;;;13.80;3.50;;;20.30;99.90;;;;;;6068260;23;20010;-94
2022/08/29 09:07:16;;;;;;;12.23;3.17;;;20.30;99.90;;;;;;6067618;23;20022;-93
2022/08/29 09:10:02;;;;;;;16.63;3.50;;;20.30;99.90;;;;;;6068323;23;20018;-92
2022/08/29 09:12:50;;;;;;;13.07;3.40;;;20.30;99.90;;;;;;6068325;23;20030;-92
2022/08/29 09:15:19;;;;;;;13.68;2.85;;;20.20;99.90;;;;;;6067392;23;20018;-89
2022/08/29 09:17:53;;;;;;;19.52;3.20;;;20.20;99.90;;;;;;6069276;23;20024;-89
2022/08/29 09:20:24;;;;;;;15.38;3.30;;;20.30;99.90;;;;;;6066907;23;20010;-89
2022/08/29 09:23:01;;;;;;;15.45;3.00;;;20.30;99.90;;;;;;6067716;23;20025;-89
2022/08/29 09:25:29;;;;;;;13.27;2.92;;;20.40;99.90;;;;;;6069500;23;20026;-90
2022/08/29 09:27:57;;;;;;;15.60;3.20;;;20.50;99.90;;;;;;6069373;23;20077;-90
2022/08/29 09:30:27;;;;;;;17.33;2.80;;;20.50;99.90;;;;;;6067256;23;20026;-89
2022/08/29 09:33:00;;;;;;;10.00;2.60;;;20.70;99.90;;;;;;6067338;23;20061;-89
2022/08/29 09:35:38;;;;;;;;;;;20.80;99.90;;;;;;6068233;23;20058;-89
2022/08/29 09:38:17;;;;;;;17.42;3.13;;;20.70;99.90;;;;;;6066588;23;19928;-90
2022/08/29 09:40:56;;;;;;;15.07;3.90;;;20.80;99.90;;;;;;6066910;23;20078;-90
2022/08/29 09:43:29;;;;;;;14.73;3.17;;;20.90;99.90;;;;;;6067428;23;20506;-90
2022/08/29 09:46:23;;;;;;;14.15;3.28;;;21.10;99.90;;;;;;6066991;23;20030;-90
2022/08/29 09:48:51;;;;;;;15.52;3.20;;;21.20;99.90;;;;;;6066707;23;20094;-90
2022/08/29 09:51:28;;;;;;;15.25;3.17;;;21.20;99.90;;;;;;6067258;23;20443;-90
2022/08/29 09:54:24;;;;;;;13.18;2.83;;;21.30;99.90;;;;;;6067631;23;20026;-89
2022/08/29 09:56:58;;;;;;;14.77;3.05;;;21.30;99.90;;;;;;6066081;23;20014;-89
2022/08/29 09:59:32;;;;;;;14.10;3.15;;;21.30;99.90;;;;;;6066746;23;20026;-89
2022/08/29 10:02:10;;;;;;;16.13;3.30;;;21.20;99.90;;;;;;6066615;23;20025;-90
2022/08/29 10:04:38;;;;;;;18.92;3.13;;;21.20;99.90;;;;;;6065541;23;20089;-91
2022/08/29 10:07:13;;;;;;;17.67;3.67;;;21.00;99.90;;;;;;6069601;23;20526;-91
2022/08/29 10:09:39;;;;;;;15.05;3.20;;;21.10;99.90;;;;;;6066769;23;20045;-91
2022/08/29 10:12:12;;;;;;;13.40;2.55;;;21.10;99.90;;;;;;6066234;23;20451;-91
2022/08/29 10:14:45;;;;;;;18.15;2.97;;;21.10;99.90;;;;;;6067718;23;20054;-91
2022/08/29 10:20:20;;;;;;;11.77;2.88;;;21.30;99.90;;;;;;6091174;23;20029;-92
2022/08/29 10:22:59;;;;;;;12.88;2.83;;;21.50;99.90;;;;;;6069388;23;20144;-90
2022/08/29 10:25:35;;;;;;;11.02;2.60;;;21.60;99.90;;;;;;6066262;23;20064;-90
2022/08/29 10:28:12;;;;;;;14.65;3.10;;;21.80;99.90;;;;;;6066791;23;20014;-92
2022/08/29 10:30:57;;;;;;;21.70;3.08;;;22.10;99.90;;;;;;6065597;23;20482;-90
2022/08/29 10:33:47;;;;;;;23.63;4.13;;;22.30;99.90;;;;;;6066488;23;20019;-91
2022/08/29 10:36:30;;;;;;;13.00;2.65;;;22.50;99.90;;;;;;6067516;23;20050;-90
2022/08/29 10:39:16;;;;;;;13.68;2.72;;;22.70;99.90;;;;;;6065955;23;20018;-91
2022/08/29 10:42:03;;;;;;;12.38;3.08;;;22.80;99.90;;;;;;6067663;23;20023;-92
2022/08/29 10:44:35;;;;;;;13.65;2.58;;;22.90;99.90;;;;;;6068353;23;20022;-90
2022/08/29 10:47:11;;;;;;;16.23;2.70;;;22.90;99.90;;;;;;6067539;23;20079;-90
2022/08/29 10:49:37;;;;;;;11.80;2.88;;;22.90;99.90;;;;;;6070043;23;20041;-90
2022/08/29 10:52:26;;;;;;;21.08;3.15;;;22.70;99.90;;;;;;6068255;23;20116;-91
2022/08/29 10:55:02;;;;;;;12.63;2.97;;;22.70;99.90;;;;;;6071375;23;20026;-91
2022/08/29 10:57:53;;;;;;;11.40;2.78;;;22.70;99.90;;;;;;6068636;23;20049;-90
2022/08/29 11:00:23;;;;;;;18.00;3.00;;;22.60;99.90;;;;;;6067803;23;20018;-91
2022/08/29 11:03:14;;;;;;;11.85;3.20;;;22.60;99.90;;;;;;6073125;23;20097;-93
2022/08/29 11:05:45;;;;;;;13.50;3.08;;;22.40;99.90;;;;;;6070512;23;20081;-94
2022/08/29 11:08:16;;;;;;;14.88;3.13;;;22.30;99.90;;;;;;6068616;23;20018;-94
2022/08/29 11:10:44;;;;;;;13.00;2.78;;;22.20;99.90;;;;;;6068722;23;20022;-94
2022/08/29 11:13:13;;;;;;;13.77;2.60;;;22.10;99.90;;;;;;6069687;23;20028;-95
2022/08/29 11:16:01;;;;;;;11.80;2.72;;;21.90;99.90;;;;;;6071368;23;20117;-94
2022/08/29 11:18:37;;;;;;;9.05;2.33;;;21.90;99.90;;;;;;6068550;23;20525;-94
2022/08/29 11:21:14;;;;;;;8.57;1.83;;;21.80;99.90;;;;;;6068258;23;20045;-94
2022/08/29 11:23:43;;;;;;;12.88;2.35;;;21.80;99.90;;;;;;6068968;23;20026;-94
2022/08/29 11:26:29;;;;;;;11.30;2.60;;;21.80;99.90;;;;;;6069393;23;20027;-94
2022/08/29 11:29:10;;;;;;;10.75;2.40;;;21.80;99.90;;;;;;6068144;23;20022;-94
2022/08/29 11:31:55;;;;;;;12.30;2.55;;;21.80;99.90;;;;;;6068699;23;20018;-94
2022/08/29 11:34:45;;;;;;;9.05;2.15;;;21.90;99.90;;;;;;6068259;23;20014;-95
2022/08/29 11:37:55;;;;;;;8.70;2.58;;;22.00;99.90;;;;;;6068466;23;20050;-94
2022/08/29 11:40:40;;;;;;;11.63;2.17;;;22.00;99.90;;;;;;6070173;23;20054;-94
2022/08/29 11:43:12;;;;;;;10.95;2.05;;;22.00;99.90;;;;;;6068377;23;20459;-94
2022/08/29 11:45:41;;;;;;;14.23;2.35;;;22.10;99.90;;;;;;6068602;23;20069;-94
2022/08/29 11:48:41;;;;;;;9.93;2.72;;;22.20;99.90;;;;;;6067896;23;20018;-93
2022/08/29 11:51:29;;;;;;;7.93;2.03;;;22.30;99.90;;;;;;6068880;23;20312;-94
2022/08/29 11:53:55;;;;;;;10.63;2.22;;;22.40;99.90;;;;;;6070411;23;20049;-94
2022/08/29 11:56:25;;;;;;;7.03;2.30;;;22.50;99.90;;;;;;6067465;23;20014;-93
2022/08/29 11:58:54;;;;;;;11.75;2.38;;;22.50;99.90;;;;;;6070281;23;20056;-93
2022/08/29 12:01:23;;;;;;;8.23;1.98;;;22.50;99.90;;;;;;6068091;23;20057;-94
2022/08/29 12:03:52;;;;;;;13.63;2.35;;;22.50;99.90;;;;;;6068125;23;20735;-95
2022/08/29 12:06:24;;;;;;;8.23;2.20;;;22.50;99.90;;;;;;6068296;23;20023;-93
2022/08/29 12:09:07;;;;;;;8.55;2.30;;;22.40;99.90;;;;;;6068765;23;20022;-94
2022/08/29 12:12:03;;;;;;;10.50;1.95;;;22.40;99.90;;;;;;6068548;23;20018;-94
2022/08/29 12:14:37;;;;;;;5.10;1.48;;;22.40;99.90;;;;;;6068522;23;20408;-93
2022/08/29 12:17:08;;;;;;;12.65;1.77;;;22.30;99.90;;;;;;6069806;23;20053;-94
2022/08/29 12:20:09;;;;;;;8.43;2.08;;;22.40;99.90;;;;;;6068672;23;20053;-94
2022/08/29 12:22:58;;;;;;;8.85;2.53;;;22.40;99.90;;;;;;6069189;23;20117;-93
2022/08/29 12:25:26;;;;;;;11.07;2.10;;;22.40;99.90;;;;;;6067640;23;20081;-92
2022/08/29 12:28:14;;;;;;;18.48;1.63;;;22.40;99.90;;;;;;6069273;23;20018;-92
2022/08/29 12:33:19;;;;;;;6.28;1.85;;;22.50;99.90;;;;;;6095852;23;20022;-94
2022/08/29 12:36:17;;;;;;;7.35;2.10;;;22.50;99.90;;;;;;6072586;23;20069;-94
2022/08/29 12:38:49;;;;;;;10.23;1.70;;;22.50;99.90;;;;;;6069859;23;20057;-93
2022/08/29 12:41:28;;;;;;;;;;;22.50;99.90;;;;;;6069328;23;20014;-94
2022/08/29 12:43:58;;;;;;;6.47;1.70;;;22.40;99.90;;;;;;6069392;23;19963;-94
2022/08/29 12:46:30;;;;;;;15.52;1.80;;;22.40;99.90;;;;;;6069518;23;20348;-94
2022/08/29 12:49:07;;;;;;;10.90;2.13;;;22.30;99.90;;;;;;6068732;23;20015;-94
2022/08/29 12:51:37;;;;;;;5.65;1.60;;;22.30;99.90;;;;;;6067378;23;20027;-94
2022/08/29 12:54:03;;;;;;;7.72;1.63;;;22.40;99.90;;;;;;6070585;23;20021;-92
2022/08/29 12:56:29;;;;;;;6.45;1.80;;;22.30;99.90;;;;;;6067893;23;20026;-93
2022/08/29 12:58:58;;;;;;;7.40;1.85;;;22.30;99.90;;;;;;6068082;23;20029;-93
2022/08/29 13:01:24;;;;;;;12.25;2.28;;;22.20;99.90;;;;;;6067785;23;20065;-94
2022/08/29 13:04:00;;;;;;;8.35;1.77;;;22.00;99.90;;;;;;6068022;23;20019;-93
2022/08/29 13:06:27;;;;;;;10.48;2.20;;;22.00;99.90;;;;;;6066551;23;20525;-94